Time;durP1;ratioP1;P1;durP2;ratioP2;P2;SDS_P1;SDS_P2;PMS_P1;PMS_P2;Temp;Humidity;BMP_temperature;BMP_pressure;BME280_temperature;BME280_humidity;BME280_pressure;Samples;Min_cycle;Max_cycle;Signal;HPM_P1;HPM_P2
2024/01/10 00:00:13;;;;;;;7.65;3.45;;;;;;;-4.63;69.92;96155.00;6228253;23;20078;-87
2024/01/10 00:02:38;;;;;;;14.52;3.60;;;;;;;-6.50;69.24;95799.31;6228393;23;20075;-88
2024/01/10 00:05:04;;;;;;;9.90;3.65;;;;;;;-3.42;69.51;96290.09;6228937;23;20033;-87
2024/01/10 00:07:30;;;;;;;7.88;4.18;;;;;;;-3.51;68.55;96296.25;6202164;23;20004;-87
2024/01/10 00:09:57;;;;;;;7.53;3.33;;;;;;;-4.49;68.54;96188.88;6202481;23;20016;-87
2024/01/10 00:12:22;;;;;;;11.98;3.75;;;;;;;-4.90;69.14;96107.69;6227975;23;20064;-88
2024/01/10 00:14:48;;;;;;;7.82;3.80;;;;;;;-4.42;69.10;96194.25;6200921;23;20012;-87
2024/01/10 00:17:13;;;;;;;5.65;3.17;;;;;;;-4.60;69.73;96141.78;6200979;23;20012;-87
2024/01/10 00:19:39;;;;;;;8.50;3.67;;;;;;;-3.61;69.25;96293.78;6199517;23;20079;-87
2024/01/10 00:22:04;;;;;;;7.45;3.38;;;;;;;-4.28;68.22;96178.13;6228759;23;20012;-87
2024/01/10 00:24:30;;;;;;;8.02;3.22;;;;;;;-4.11;68.18;96213.47;6201286;23;20012;-87
2024/01/10 00:26:55;;;;;;;8.50;4.25;;;;;;;-5.69;68.45;95954.59;6200269;23;20067;-88
2024/01/10 00:29:21;;;;;;;15.00;4.00;;;;;;;-4.30;68.81;96162.75;6227153;23;20409;-87
2024/01/10 00:31:46;;;;;;;9.48;3.95;;;;;;;-5.98;68.06;95900.75;6227238;23;20004;-87
2024/01/10 00:34:12;;;;;;;14.27;4.30;;;;;;;-3.57;68.69;96276.13;6201257;23;20016;-88
2024/01/10 00:36:38;;;;;;;12.10;4.05;;;;;;;-4.33;68.20;96147.50;6200752;23;20008;-87
2024/01/10 00:39:03;;;;;;;7.05;3.72;;;;;;;-4.40;68.92;96132.75;6201406;23;20004;-87
2024/01/10 00:41:29;;;;;;;9.73;3.72;;;;;;;-3.52;68.91;96274.69;6202112;23;20019;-87
2024/01/10 00:43:54;;;;;;;10.48;4.15;;;;;;;-4.61;68.62;96115.06;6201098;23;20016;-88
2024/01/10 00:46:20;;;;;;;8.35;3.85;;;;;;;-4.79;68.02;96068.56;6198055;23;19996;-89
2024/01/10 00:48:46;;;;;;;12.38;4.20;;;;;;;-3.19;67.20;96305.84;6201482;23;20000;-88
2024/01/10 00:51:11;;;;;;;8.00;4.10;;;;;;;-3.38;67.79;96288.00;6201613;23;20013;-89
2024/01/10 00:53:40;;;;;;;7.95;4.03;;;;;;;-3.52;68.57;96266.09;6201903;23;20008;-87
2024/01/10 00:56:06;;;;;;;10.27;3.88;;;;;;;-3.28;68.33;96301.63;6201126;23;20047;-90
2024/01/10 00:58:32;;;;;;;12.05;3.92;;;;;;;-3.74;67.35;96248.56;6200491;23;20000;-89
2024/01/10 01:00:57;;;;;;;5.63;3.35;;;;;;;-3.42;66.86;96282.31;6202047;23;20067;-89
2024/01/10 01:03:23;;;;;;;7.63;3.33;;;;;;;-3.96;65.32;96221.44;6206300;23;19996;-89
2024/01/10 01:05:51;;;;;;;13.32;3.90;;;;;;;-4.08;65.80;96195.03;6202040;23;20016;-89
2024/01/10 01:08:16;;;;;;;6.97;3.47;;;;;;;-3.31;67.78;96307.94;6201434;23;20012;-89
2024/01/10 01:10:42;;;;;;;7.32;3.03;;;;;;;-4.51;67.48;96099.41;6202624;23;20008;-90
2024/01/10 01:13:07;;;;;;;8.25;3.50;;;;;;;-3.99;67.56;96206.22;6204007;23;20332;-87
2024/01/10 01:15:33;;;;;;;7.05;3.92;;;;;;;-3.81;66.60;96245.75;6201766;23;20009;-87
2024/01/10 01:17:58;;;;;;;7.03;3.53;;;;;;;-3.81;66.91;96222.44;6226674;23;20020;-89
2024/01/10 01:20:24;;;;;;;7.13;4.30;;;;;;;-3.74;67.56;96230.41;6203125;23;20039;-88
2024/01/10 01:22:50;;;;;;;6.18;3.58;;;;;;;-4.36;66.85;96162.56;6200455;23;20012;-86
2024/01/10 01:25:15;;;;;;;11.07;4.70;;;;;;;-4.43;67.28;96153.81;6228010;23;20004;-88
2024/01/10 01:27:41;;;;;;;10.00;3.53;;;;;;;-3.74;68.07;96240.78;6211427;23;20071;-88
2024/01/10 01:30:07;;;;;;;16.02;4.32;;;;;;;-3.33;67.91;96288.31;6210788;23;20016;-88
2024/01/10 01:32:32;;;;;;;8.30;4.13;;;;;;;-3.32;67.26;96288.16;6211412;23;20007;-89
2024/01/10 01:34:58;;;;;;;6.43;3.70;;;;;;;-3.52;66.65;96272.09;6238294;23;20056;-87
2024/01/10 01:37:23;;;;;;;7.03;3.72;;;;;;;-3.87;66.49;96220.50;6237884;23;20018;-87
2024/01/10 01:39:49;;;;;;;8.95;3.50;;;;;;;-4.11;66.82;96218.63;6211483;23;20000;-88
2024/01/10 01:42:15;;;;;;;11.10;3.83;;;;;;;-3.55;67.87;96282.78;6209570;23;19997;-86
2024/01/10 01:44:41;;;;;;;10.25;4.35;;;;;;;-4.12;68.47;96193.69;6240894;23;20050;-87
2024/01/10 01:47:06;;;;;;;7.50;3.40;;;;;;;-4.30;68.41;96159.34;6210480;23;20014;-88
2024/01/10 01:49:32;;;;;;;6.47;3.65;;;;;;;-4.22;68.62;96154.19;6206965;23;20435;-89
2024/01/10 01:51:59;;;;;;;7.57;4.03;;;;;;;-3.50;68.61;96284.88;6206197;23;20013;-87
2024/01/10 01:54:25;;;;;;;9.10;4.13;;;;;;;-3.72;68.35;96275.13;6232918;23;20009;-88
2024/01/10 01:56:51;;;;;;;7.20;3.50;;;;;;;-4.69;67.95;96109.88;6203299;23;20009;-88
2024/01/10 01:59:17;;;;;;;10.13;4.50;;;;;;;-4.34;67.49;96158.03;6203472;23;20004;-89
2024/01/10 02:01:43;;;;;;;17.95;5.13;;;;;;;-3.82;67.93;96272.69;6203807;23;20004;-88
2024/01/10 02:04:09;;;;;;;10.57;4.63;;;;;;;-3.70;68.17;96266.22;6204878;23;20001;-88
2024/01/10 02:06:34;;;;;;;9.00;4.55;;;;;;;-3.78;68.08;96258.41;6233050;23;20008;-88
2024/01/10 02:09:00;;;;;;;8.18;3.85;;;;;;;-5.98;67.84;95917.06;6203821;23;20023;-89
2024/01/10 02:11:26;;;;;;;8.80;3.75;;;;;;;-3.57;68.88;96271.75;6203595;23;20103;-88
2024/01/10 02:13:54;;;;;;;8.43;4.07;;;;;;;-4.64;68.47;96107.59;6202612;23;20017;-89
2024/01/10 02:16:20;;;;;;;8.63;3.72;;;;;;;-3.84;67.84;96247.88;6203450;23;20091;-88
2024/01/10 02:18:46;;;;;;;11.60;4.05;;;;;;;-4.03;66.85;96234.22;6203613;23;20118;-88
2024/01/10 02:21:11;;;;;;;9.10;4.10;;;;;;;-5.51;67.06;95997.50;6202207;23;20004;-88
2024/01/10 02:23:37;;;;;;;8.93;4.05;;;;;;;-5.54;66.27;96004.75;6228377;23;20011;-88
2024/01/10 02:26:03;;;;;;;6.90;3.75;;;;;;;-7.18;66.58;95738.16;6200784;23;20043;-88
2024/01/10 02:28:28;;;;;;;8.48;3.88;;;;;;;-4.30;66.70;96231.84;6227654;23;20035;-89
2024/01/10 02:30:55;;;;;;;11.27;4.65;;;;;;;-4.04;66.92;96266.25;6201043;23;20035;-88
2024/01/10 02:33:20;;;;;;;9.77;3.72;;;;;;;-4.63;66.32;96176.53;6199674;23;20028;-89
2024/01/10 02:35:46;;;;;;;10.80;4.18;;;;;;;-4.08;67.50;96233.88;6201003;23;20068;-89
2024/01/10 02:38:11;;;;;;;8.60;3.67;;;;;;;-5.18;67.43;96041.59;6227076;23;20082;-89
2024/01/10 02:40:37;;;;;;;10.25;4.00;;;;;;;-3.71;68.07;96266.38;6202017;23;20012;-88
2024/01/10 02:43:03;;;;;;;15.00;4.32;;;;;;;-5.72;67.34;95950.56;6201918;23;20013;-87
2024/01/10 02:45:28;;;;;;;17.38;4.60;;;;;;;-5.14;67.64;96004.13;6200788;23;20023;-89
2024/01/10 02:47:54;;;;;;;7.40;3.90;;;;;;;-4.30;67.81;96138.63;6226324;23;20075;-88
2024/01/10 02:50:20;;;;;;;10.50;4.53;;;;;;;-3.48;67.27;96261.38;6199482;23;20040;-89
2024/01/10 02:52:45;;;;;;;13.10;4.72;;;;;;;-5.82;66.33;95930.97;6227155;23;20028;-89
2024/01/10 02:55:11;;;;;;;10.00;4.07;;;;;;;-3.58;66.39;96269.31;6200568;23;20016;-88
2024/01/10 02:57:36;;;;;;;7.43;3.83;;;;;;;-3.65;66.18;96265.72;6192403;23;20083;-87
2024/01/10 03:00:04;;;;;;;13.60;4.03;;;;;;;-4.75;66.32;96076.84;6192452;23;20008;-88
2024/01/10 03:02:30;;;;;;;8.25;4.07;;;;;;;-3.64;66.15;96242.25;6218578;23;20083;-88
2024/01/10 03:04:55;;;;;;;10.50;3.90;;;;;;;-3.97;65.82;96235.38;6192141;23;20004;-88
2024/01/10 03:07:21;;;;;;;7.35;4.35;;;;;;;-5.49;65.86;95961.16;6196400;23;20019;-88
2024/01/10 03:09:46;;;;;;;7.32;4.15;;;;;;;-3.72;66.31;96249.19;6196012;23;20012;-87
2024/01/10 03:12:12;;;;;;;8.07;3.65;;;;;;;-3.56;65.28;96257.81;6223826;23;20004;-88
2024/01/10 03:14:37;;;;;;;7.55;4.22;;;;;;;-4.19;66.51;96191.91;6193866;23;20019;-87
2024/01/10 03:17:03;;;;;;;9.13;3.85;;;;;;;-4.69;66.84;96091.75;6193298;23;20009;-87
2024/01/10 03:19:29;;;;;;;8.38;4.00;;;;;;;-3.73;67.13;96260.53;6193867;23;20063;-87
2024/01/10 03:21:54;;;;;;;7.95;3.95;;;;;;;-6.27;66.93;95859.78;6219973;23;20012;-87
2024/01/10 03:24:20;;;;;;;8.10;4.30;;;;;;;-3.56;66.82;96278.56;6194181;23;20009;-87
2024/01/10 03:26:45;;;;;;;9.38;4.88;;;;;;;-4.50;67.42;96134.69;6193184;23;20008;-87
2024/01/10 03:29:11;;;;;;;7.90;4.05;;;;;;;-6.59;65.05;95801.03;6219008;23;20011;-87
2024/01/10 03:31:37;;;;;;;7.68;3.78;;;;;;;-4.22;65.19;96154.19;6218943;23;20008;-87
2024/01/10 03:34:03;;;;;;;7.43;3.72;;;;;;;-3.43;66.20;96293.63;6187985;23;20009;-87
2024/01/10 03:36:29;;;;;;;9.05;3.83;;;;;;;-3.82;66.47;96196.69;6191518;23;20023;-87
2024/01/10 03:38:55;;;;;;;7.72;4.20;;;;;;;-3.88;66.20;96185.16;6219961;23;20004;-88
2024/01/10 03:41:21;;;;;;;11.52;4.38;;;;;;;-3.34;65.58;96277.13;6219727;23;20528;-87
2024/01/10 03:43:47;;;;;;;10.00;4.00;;;;;;;-4.68;64.86;96049.38;6219575;23;20017;-89
2024/01/10 03:46:13;;;;;;;8.07;4.13;;;;;;;-3.27;64.53;96272.91;6193743;23;20005;-88
2024/01/10 03:48:47;;;;;;;11.30;4.13;;;;;;;-3.23;64.27;96268.22;6192025;23;20004;-87
2024/01/10 03:51:13;;;;;;;9.55;4.57;;;;;;;-3.61;64.05;96226.38;6191788;23;20437;-88
2024/01/10 03:53:38;;;;;;;10.02;4.53;;;;;;;-4.21;63.14;96136.88;6219494;23;20009;-88
2024/01/10 03:56:05;;;;;;;13.05;4.07;;;;;;;-5.95;63.71;95893.47;6192036;23;20012;-88
2024/01/10 03:58:30;;;;;;;9.50;4.38;;;;;;;-4.97;65.11;96145.50;6192322;23;20008;-88
2024/01/10 04:00:56;;;;;;;9.32;4.32;;;;;;;-4.02;65.81;96276.47;6191966;23;20467;-88
2024/01/10 04:03:21;;;;;;;9.32;3.88;;;;;;;-4.48;65.58;96200.06;6219013;23;20039;-88
2024/01/10 04:05:47;;;;;;;12.52;4.93;;;;;;;-4.33;66.49;96198.50;6219726;23;20005;-88
2024/01/10 04:08:12;;;;;;;15.90;5.10;;;;;;;-4.42;66.47;96220.13;6190950;23;20009;-88
2024/01/10 04:10:38;;;;;;;9.70;5.22;;;;;;;-5.62;66.62;95995.19;6218644;23;20005;-88
2024/01/10 04:13:04;;;;;;;13.65;4.38;;;;;;;-4.38;66.37;96222.28;6219473;23;20012;-89
2024/01/10 04:15:29;;;;;;;9.18;4.28;;;;;;;-4.28;66.42;96222.16;6192687;23;20013;-88
2024/01/10 04:17:55;;;;;;;13.27;4.60;;;;;;;-4.16;66.26;96227.84;6218585;23;20004;-88
2024/01/10 04:20:20;;;;;;;11.88;4.50;;;;;;;-3.77;65.19;96285.16;6192757;23;20008;-88
2024/01/10 04:22:46;;;;;;;8.35;4.78;;;;;;;-3.83;65.95;96268.47;6221089;23;20056;-88
2024/01/10 04:25:11;;;;;;;8.55;5.13;;;;;;;-6.43;66.11;95841.63;6194535;23;20066;-88
2024/01/10 04:27:37;;;;;;;9.60;4.68;;;;;;;-6.12;65.40;95917.63;6221471;23;20416;-85
2024/01/10 04:30:03;;;;;;;8.48;4.10;;;;;;;-5.29;65.03;96080.66;6221960;23;20015;-85
2024/01/10 04:32:28;;;;;;;7.35;4.22;;;;;;;-4.52;65.64;96201.34;6221464;23;20357;-86
2024/01/10 04:34:54;;;;;;;13.35;5.45;;;;;;;-4.17;65.85;96249.53;6188497;23;20019;-85
2024/01/10 04:37:22;;;;;;;13.85;5.28;;;;;;;-6.17;65.28;95929.34;6194673;23;20460;-85
2024/01/10 04:39:48;;;;;;;9.90;5.40;;;;;;;-4.14;65.36;96283.72;6193861;23;20042;-86
2024/01/10 04:42:14;;;;;;;12.98;5.70;;;;;;;-5.31;67.01;96114.41;6195289;23;20056;-85
2024/01/10 04:44:40;;;;;;;16.83;5.30;;;;;;;-4.21;66.38;96298.28;6194608;23;20021;-86
2024/01/10 04:47:05;;;;;;;9.00;4.50;;;;;;;-3.91;66.89;96312.50;6194320;23;20032;-85
2024/01/10 04:49:31;;;;;;;14.10;4.85;;;;;;;-7.01;65.54;95818.97;6194313;23;20087;-85
2024/01/10 04:51:57;;;;;;;11.75;5.40;;;;;;;-5.89;66.28;96019.47;6223711;23;20005;-85
2024/01/10 04:54:22;;;;;;;7.85;4.55;;;;;;;-3.90;66.38;96325.28;6195251;23;20012;-85
2024/01/10 04:56:48;;;;;;;11.25;5.05;;;;;;;-4.00;66.88;96316.00;6223027;23;20008;-85
2024/01/10 04:59:14;;;;;;;8.75;5.13;;;;;;;-3.90;66.99;96327.88;6195973;23;20008;-86
2024/01/10 05:01:39;;;;;;;17.25;5.15;;;;;;;-3.78;67.46;96318.03;6222332;23;20012;-86
2024/01/10 05:04:05;;;;;;;13.88;5.45;;;;;;;-3.68;67.38;96325.69;6196018;23;20005;-85
2024/01/10 05:06:31;;;;;;;10.05;5.38;;;;;;;-3.86;66.16;96343.09;6222041;23;20008;-86
2024/01/10 05:08:58;;;;;;;10.60;5.28;;;;;;;-4.62;66.83;96179.94;6194710;23;20012;-85
2024/01/10 05:11:24;;;;;;;14.52;6.50;;;;;;;-4.35;66.46;96234.13;6197057;23;20031;-85
2024/01/10 05:13:50;;;;;;;15.43;6.15;;;;;;;-5.38;66.87;96058.31;6221592;23;20072;-85
2024/01/10 05:16:19;;;;;;;10.38;4.70;;;;;;;-4.61;66.71;96186.75;6222536;23;20503;-85
2024/01/10 05:18:44;;;;;;;11.40;4.95;;;;;;;-4.54;65.18;96191.13;6213594;23;20015;-88
2024/01/10 05:21:10;;;;;;;12.43;4.88;;;;;;;-5.50;64.84;96087.03;6185660;23;20001;-86
2024/01/10 05:23:38;;;;;;;12.30;5.47;;;;;;;-7.13;64.93;95846.75;6215061;23;20005;-87
2024/01/10 05:26:04;;;;;;;14.15;6.07;;;;;;;-4.31;65.78;96300.16;6146934;23;20020;-86
2024/01/10 05:28:30;;;;;;;22.08;8.07;;;;;;;-5.48;65.69;96136.78;6190714;23;20360;-86
2024/01/10 05:30:55;;;;;;;20.27;7.15;;;;;;;-5.79;64.80;96081.31;6205591;23;20339;-87
2024/01/10 05:33:21;;;;;;;15.65;6.90;;;;;;;-4.06;65.70;96339.97;6177808;23;20031;-87
2024/01/10 05:35:47;;;;;;;20.90;8.13;;;;;;;-6.29;66.09;96001.09;6188717;23;20018;-87
2024/01/10 05:38:17;;;;;;;14.25;4.85;;;;;;;-4.03;65.33;96352.59;6194323;23;20330;-87
2024/01/10 05:40:42;;;;;;;23.63;7.07;;;;;;;-5.68;64.79;96063.00;6194718;23;20376;-86
2024/01/10 05:43:10;;;;;;;16.08;6.50;;;;;;;-3.90;64.82;96351.22;6223631;23;20030;-86
2024/01/10 05:45:35;;;;;;;13.70;4.85;;;;;;;-5.89;63.19;96040.13;6194670;23;20342;-88
2024/01/10 05:48:01;;;;;;;8.63;4.00;;;;;;;-4.39;63.22;96280.22;6222725;23;20012;-87
2024/01/10 05:50:30;;;;;;;10.88;4.85;;;;;;;-4.01;63.50;96348.06;6189098;23;20441;-87
2024/01/10 05:53:17;;;;;;;12.70;3.63;;;;;;;-7.62;62.40;95798.31;6210368;23;20399;-87
2024/01/10 05:55:43;;;;;;;18.77;4.05;;;;;;;-8.91;61.28;95600.53;6177482;23;20004;-86
2024/01/10 05:58:10;;;;;;;7.90;3.42;;;;;;;-6.15;63.32;96046.19;6171393;23;20043;-86
2024/01/10 06:00:36;;;;;;;7.03;3.85;;;;;;;-7.61;62.10;95854.03;6205400;23;20019;-87
2024/01/10 06:03:01;;;;;;;8.48;3.83;;;;;;;-6.59;61.87;95936.97;6201603;23;20008;-87
2024/01/10 06:05:27;;;;;;;18.83;5.28;;;;;;;-4.36;62.74;96310.19;6183637;23;20016;-87
2024/01/10 06:07:53;;;;;;;14.32;4.80;;;;;;;-3.94;62.45;96365.44;6223169;23;20132;-87
2024/01/10 06:10:18;;;;;;;12.35;4.72;;;;;;;-4.06;61.19;96340.78;6226907;23;20000;-86
2024/01/10 06:12:44;;;;;;;14.52;6.05;;;;;;;-5.10;63.83;96222.69;6196187;23;20008;-87
2024/01/10 06:15:09;;;;;;;9.07;4.85;;;;;;;-4.56;62.62;96273.31;6211447;23;20092;-86
2024/01/10 06:17:35;;;;;;;17.15;5.90;;;;;;;-4.93;62.58;96221.00;6187214;23;20068;-87
2024/01/10 06:20:03;;;;;;;13.27;5.68;;;;;;;-4.73;62.13;96271.63;6189797;23;20000;-88
2024/01/10 06:22:29;;;;;;;16.65;5.72;;;;;;;-4.05;62.83;96365.72;6186932;23;20008;-87
2024/01/10 06:24:54;;;;;;;21.35;5.88;;;;;;;-5.98;62.22;96066.03;6199328;23;20016;-84
2024/01/10 06:27:20;;;;;;;17.63;6.50;;;;;;;-6.15;61.51;96021.19;6207450;23;20012;-86
2024/01/10 06:29:45;;;;;;;18.70;6.65;;;;;;;-6.05;62.18;96068.41;6218000;23;20004;-87
2024/01/10 06:32:11;;;;;;;12.23;4.88;;;;;;;-4.88;61.69;96267.97;6229788;23;20047;-87
2024/01/10 06:34:37;;;;;;;28.23;6.68;;;;;;;-5.49;62.22;96162.75;6182562;23;20017;-80
2024/01/10 06:37:03;;;;;;;15.70;7.03;;;;;;;-4.11;63.02;96389.63;6179205;23;20075;-84
2024/01/10 06:39:28;;;;;;;22.40;7.50;;;;;;;-4.18;61.94;96375.66;6201444;23;20004;-84
2024/01/10 06:41:55;;;;;;;15.40;6.65;;;;;;;-4.44;61.75;96360.16;6202522;23;20004;-84
2024/01/10 06:44:20;;;;;;;14.55;4.75;;;;;;;-4.95;62.13;96282.44;6200611;23;20038;-84
2024/01/10 06:46:47;;;;;;;8.65;4.20;;;;;;;-4.52;60.00;96335.97;6199083;23;20087;-84
2024/01/10 06:49:12;;;;;;;21.25;6.05;;;;;;;-4.48;59.93;96334.69;6198634;23;20019;-84
2024/01/10 06:51:38;;;;;;;13.15;4.35;;;;;;;-4.90;59.28;96308.69;6199538;23;20012;-84
2024/01/10 06:54:05;;;;;;;15.13;5.88;;;;;;;-4.29;58.99;96402.66;6199581;23;20019;-84
2024/01/10 06:56:32;;;;;;;25.73;7.88;;;;;;;-4.22;59.66;96402.84;6200960;23;20023;-84
2024/01/10 06:58:58;;;;;;;22.63;9.20;;;;;;;-5.18;59.82;96266.59;6219147;23;20019;-86
2024/01/10 07:01:24;;;;;;;24.48;8.75;;;;;;;-4.83;58.67;96348.53;6214946;23;20529;-85
2024/01/10 07:03:54;;;;;;;34.75;8.90;;;;;;;-4.35;59.68;96412.81;6209811;23;20096;-87
2024/01/10 07:06:20;;;;;;;27.73;8.02;;;;;;;-4.56;59.41;96378.63;6221893;23;20016;-88
2024/01/10 07:08:49;;;;;;;30.83;9.65;;;;;;;-4.36;60.26;96388.69;6222390;23;20084;-87
2024/01/10 07:11:15;;;;;;;27.55;10.27;;;;;;;-4.24;60.92;96403.97;6217541;23;20449;-88
2024/01/10 07:13:41;;;;;;;32.95;9.93;;;;;;;-4.74;61.18;96309.63;6207876;23;20549;-87
2024/01/10 07:16:08;;;;;;;31.15;9.60;;;;;;;-5.04;60.71;96255.72;6210131;23;20056;-86
2024/01/10 07:18:33;;;;;;;29.08;8.48;;;;;;;-5.52;58.29;96176.00;6221298;23;20227;-87
2024/01/10 07:20:59;;;;;;;26.05;7.30;;;;;;;-4.08;58.42;96415.25;6220087;23;20008;-87
2024/01/10 07:23:25;;;;;;;19.13;7.43;;;;;;;-4.41;58.01;96366.78;6219174;23;20004;-87
2024/01/10 07:25:50;;;;;;;20.73;8.13;;;;;;;-4.75;58.26;96314.94;6220921;23;20307;-87
2024/01/10 07:28:17;;;;;;;22.38;8.38;;;;;;;-4.38;57.15;96397.56;6221420;23;20012;-87
2024/01/10 07:30:44;;;;;;;22.13;6.65;;;;;;;-4.35;55.92;96428.34;6225878;22;20019;-87
2024/01/10 07:33:10;;;;;;;21.33;5.80;;;;;;;-4.70;57.74;96372.22;6212652;23;20071;-87
2024/01/10 07:35:36;;;;;;;11.18;5.45;;;;;;;-5.06;56.96;96281.72;6216261;23;20069;-87
2024/01/10 07:38:01;;;;;;;19.23;7.13;;;;;;;-4.35;57.24;96397.28;6215811;23;20020;-87
2024/01/10 07:40:27;;;;;;;42.05;7.57;;;;;;;-4.05;57.64;96430.50;6223273;23;20020;-87
2024/01/10 07:42:52;;;;;;;17.15;6.55;;;;;;;-4.74;56.90;96355.41;6224268;23;20008;-86
2024/01/10 07:45:18;;;;;;;14.35;6.70;;;;;;;-4.06;56.48;96443.59;6226915;23;20008;-86
2024/01/10 07:47:44;;;;;;;14.18;5.25;;;;;;;-4.50;55.92;96411.72;6223978;23;20009;-86
2024/01/10 07:50:14;;;;;;;17.85;6.90;;;;;;;-5.91;55.81;96167.78;6223240;23;20005;-87
2024/01/10 07:52:40;;;;;;;25.92;6.93;;;;;;;-4.08;57.88;96443.75;6219468;23;20012;-87
2024/01/10 07:55:06;;;;;;;21.60;6.93;;;;;;;-5.21;57.61;96279.81;6216677;23;20035;-86
2024/01/10 07:57:36;;;;;;;25.02;8.50;;;;;;;-5.52;56.95;96223.34;6216494;23;20027;-86
2024/01/10 08:00:08;;;;;;;26.08;7.75;;;;;;;-4.91;56.87;96338.94;6209523;23;20012;-86
2024/01/10 08:02:34;;;;;;;24.83;7.93;;;;;;;-4.96;56.79;96337.75;6212284;22;20027;-86
2024/01/10 08:05:05;;;;;;;22.42;7.65;;;;;;;-6.03;56.27;96202.56;6214791;23;20020;-87
2024/01/10 08:07:32;;;;;;;28.40;8.57;;;;;;;-5.34;56.31;96282.00;6213442;22;20451;-87
2024/01/10 08:09:59;;;;;;;25.63;6.18;;;;;;;-4.27;55.34;96441.31;6200619;23;20515;-87
2024/01/10 08:12:25;;;;;;;16.60;6.85;;;;;;;-4.78;54.00;96360.03;6194523;23;20180;-87
2024/01/10 08:14:51;;;;;;;19.50;7.15;;;;;;;-6.28;53.99;96117.09;6188899;23;20128;-87
2024/01/10 08:17:16;;;;;;;16.50;5.68;;;;;;;-5.20;53.71;96310.72;6201023;23;20009;-86
2024/01/10 08:19:42;;;;;;;10.77;4.38;;;;;;;-5.76;53.72;96204.22;6202605;23;20212;-87
2024/01/10 08:22:08;;;;;;;12.20;5.55;;;;;;;-4.50;52.66;96381.44;6205901;23;20010;-86
2024/01/10 08:24:33;;;;;;;5.70;2.50;;;;;;;-4.28;52.45;96393.91;6211972;23;20008;-85
2024/01/10 08:26:59;;;;;;;10.07;3.40;;;;;;;-4.39;53.25;96346.72;6219493;23;20052;-86
2024/01/10 08:29:30;;;;;;;19.08;4.80;;;;;;;-3.75;52.09;96430.97;6224977;23;20028;-88
2024/01/10 08:31:56;;;;;;;17.42;5.18;;;;;;;-4.15;52.73;96341.69;6223601;23;20021;-86
2024/01/10 08:34:22;;;;;;;11.82;5.38;;;;;;;-3.94;51.89;96357.66;6222697;23;20024;-85
2024/01/10 08:36:50;;;;;;;20.38;6.32;;;;;;;-3.26;52.28;96450.16;6222976;23;20413;-86
2024/01/10 08:39:16;;;;;;;9.85;4.70;;;;;;;-3.62;52.63;96384.69;6220788;23;20016;-86
2024/01/10 08:41:44;;;;;;;14.60;4.78;;;;;;;-3.29;51.59;96456.47;6220810;23;20012;-87
2024/01/10 08:44:18;;;;;;;8.82;4.40;;;;;;;-4.35;51.97;96335.91;6221973;23;20009;-87
2024/01/10 08:46:44;;;;;;;22.25;4.68;;;;;;;-4.32;53.41;96277.81;6214169;23;20023;-87
2024/01/10 08:49:10;;;;;;;11.82;4.45;;;;;;;-3.47;52.81;96429.00;6213886;23;20068;-86
2024/01/10 08:51:40;;;;;;;13.98;4.80;;;;;;;-4.94;52.51;96202.09;6208982;22;20012;-86
2024/01/10 08:54:10;;;;;;;18.48;5.22;;;;;;;-5.12;53.41;96153.00;6204314;23;20155;-86
2024/01/10 08:56:35;;;;;;;23.35;7.10;;;;;;;-5.65;53.49;96100.66;6205544;23;20043;-86
2024/01/10 08:59:01;;;;;;;14.85;6.38;;;;;;;-6.22;52.99;96002.09;6203186;23;20012;-85
2024/01/10 09:01:32;;;;;;;19.23;6.03;;;;;;;-4.20;54.60;96348.31;6196940;23;20120;-88
2024/01/10 09:04:01;;;;;;;20.42;6.43;;;;;;;-5.05;53.97;96246.34;6177334;23;20011;-85
2024/01/10 09:06:26;;;;;;;20.50;6.40;;;;;;;-7.15;54.91;95864.13;6194433;23;20528;-87
2024/01/10 09:09:27;;;;;;;;;;;;;;;;;;;;;
2024/01/10 09:11:53;;;;;;;15.57;6.40;;;;;;;-5.64;56.14;96146.97;6191363;23;20185;-86
2024/01/10 09:14:19;;;;;;;28.75;7.78;;;;;;;-3.94;55.85;96362.03;6202650;23;20028;-88
2024/01/10 09:16:45;;;;;;;23.48;6.57;;;;;;;-3.45;55.33;96422.69;6197125;23;20013;-84
2024/01/10 09:19:11;;;;;;;15.60;6.97;;;;;;;-3.68;54.10;96452.72;6205275;23;20159;-84
2024/01/10 09:21:36;;;;;;;19.67;7.07;;;;;;;-3.56;55.48;96433.31;6204654;23;20008;-85
2024/01/10 09:24:08;;;;;;;21.85;6.85;;;;;;;-4.02;54.87;96369.75;6203051;23;20004;-86
2024/01/10 09:26:34;;;;;;;29.95;7.50;;;;;;;-6.25;55.38;96005.78;6206879;23;20011;-85
2024/01/10 09:29:05;;;;;;;20.67;6.53;;;;;;;-5.21;56.11;96129.84;6204231;23;20099;-86
2024/01/10 09:31:31;;;;;;;22.23;6.20;;;;;;;-6.54;55.81;95934.75;6204278;23;20034;-84
2024/01/10 09:33:57;;;;;;;16.95;6.72;;;;;;;-4.22;54.97;96277.69;6200744;23;20072;-86
2024/01/10 09:36:23;;;;;;;10.73;5.45;;;;;;;-4.58;54.08;96220.91;6206466;23;20027;-85
2024/01/10 09:38:48;;;;;;;18.55;6.82;;;;;;;-4.89;54.45;96137.78;6181843;23;20020;-84
2024/01/10 09:41:15;;;;;;;17.75;6.50;;;;;;;-4.37;54.43;96228.28;6204199;23;20028;-86
2024/01/10 09:43:41;;;;;;;25.08;6.65;;;;;;;-4.39;55.22;96194.75;6205573;23;20027;-88
2024/01/10 09:46:10;;;;;;;16.75;6.30;;;;;;;-2.82;55.50;96432.56;6208443;22;19996;-88
2024/01/10 09:48:36;;;;;;;23.85;6.63;;;;;;;-4.51;55.94;96122.72;6214632;22;20036;-85
2024/01/10 09:51:01;;;;;;;17.67;6.85;;;;;;;-4.38;55.29;96160.13;6201315;23;20060;-86
2024/01/10 09:53:29;;;;;;;18.90;7.05;;;;;;;-3.62;56.00;96266.22;6187594;23;20279;-84
2024/01/10 09:55:56;;;;;;;29.10;7.55;;;;;;;-3.87;54.36;96241.22;6185832;23;20023;-85
2024/01/10 09:58:26;;;;;;;13.95;6.68;;;;;;;-4.12;55.10;96200.69;6191575;23;20021;-85
2024/01/10 10:00:52;;;;;;;26.92;7.22;;;;;;;-3.53;55.41;96304.19;6166181;23;20026;-85
2024/01/10 10:03:18;;;;;;;22.15;8.18;;;;;;;-4.31;55.67;96184.44;6178768;23;20022;-84
2024/01/10 10:05:44;;;;;;;20.70;6.32;;;;;;;-4.25;55.96;96175.22;6178356;23;20008;-84
2024/01/10 10:08:21;;;;;;;26.73;7.95;;;;;;;-2.64;56.26;96409.88;6178196;23;20008;-84
2024/01/10 10:10:49;;;;;;;21.77;6.53;;;;;;;-3.08;56.06;96344.47;6178765;23;20008;-83
2024/01/10 10:13:28;;;;;;;18.15;5.82;;;;;;;-3.45;56.14;96256.72;6177984;23;20035;-84
2024/01/10 10:16:04;;;;;;;26.52;7.25;;;;;;;-2.64;57.21;96352.75;6179688;23;20082;-84
2024/01/10 10:18:31;;;;;;;19.45;6.78;;;;;;;-2.87;56.82;96292.88;6192386;23;20013;-83
2024/01/10 10:21:26;;;;;;;16.45;6.80;;;;;;;-2.18;56.76;96381.59;6198561;23;20005;-84
2024/01/10 10:23:59;;;;;;;16.80;6.78;;;;;;;-1.66;57.93;96381.94;6138915;23;20055;-81
2024/01/10 10:26:27;;;;;;;13.80;5.90;;;;;;;-1.21;54.04;96368.25;6189746;23;20051;-83
2024/01/10 10:28:52;;;;;;;15.15;5.45;;;;;;;-0.69;52.87;96312.91;6187356;23;20009;-84
2024/01/10 10:31:22;;;;;;;17.83;6.75;;;;;;;0.80;54.35;96366.53;6186636;23;20012;-79
2024/01/10 10:33:52;;;;;;;17.30;7.18;;;;;;;1.91;50.94;96368.56;6200308;23;20016;-81
2024/01/10 10:36:20;;;;;;;27.05;9.18;;;;;;;2.19;49.18;96308.38;6214277;22;20012;-86
2024/01/10 10:38:48;;;;;;;34.67;11.82;;;;;;;3.04;45.47;96289.53;6196777;23;20036;-83
2024/01/10 10:41:14;;;;;;;29.45;11.55;;;;;;;2.85;46.56;96151.44;6213192;23;20065;-81
2024/01/10 10:43:40;;;;;;;30.08;12.48;;;;;;;4.03;44.01;96232.56;6215242;23;20017;-81
2024/01/10 10:46:16;;;;;;;36.72;12.73;;;;;;;5.25;43.88;96313.88;6215224;22;20086;-82
2024/01/10 10:48:42;;;;;;;29.80;12.75;;;;;;;5.94;42.76;96312.16;6194124;23;20008;-82
2024/01/10 10:51:10;;;;;;;32.20;12.13;;;;;;;6.67;41.86;96338.53;6206979;23;20015;-84
2024/01/10 10:53:38;;;;;;;31.17;13.63;;;;;;;6.22;40.64;96307.22;6200617;23;20047;-86
2024/01/10 10:56:05;;;;;;;23.58;10.02;;;;;;;6.31;39.98;96315.63;6195361;23;20017;-85
2024/01/10 10:58:38;;;;;;;24.75;9.63;;;;;;;5.50;40.00;96261.25;6195710;23;20088;-85
2024/01/10 11:01:06;;;;;;;30.95;11.15;;;;;;;6.02;40.95;96293.44;6187752;23;20008;-84
2024/01/10 11:03:54;;;;;;;34.10;12.88;;;;;;;6.03;40.91;96330.06;6198545;23;20015;-86
2024/01/10 11:06:22;;;;;;;25.75;12.18;;;;;;;6.23;40.89;96293.00;6205386;23;20202;-85
2024/01/10 11:09:05;;;;;;;28.85;11.90;;;;;;;5.95;40.70;96343.50;6202095;22;20464;-82
2024/01/10 11:12:04;;;;;;;35.03;11.18;;;;;;;4.83;41.12;96131.31;6204529;23;20008;-83
2024/01/10 11:14:48;;;;;;;30.92;12.88;;;;;;;3.12;42.04;95937.34;6205337;23;20537;-84
2024/01/10 11:17:47;;;;;;;33.58;12.82;;;;;;;5.58;42.56;96305.72;6196702;23;20047;-82
2024/01/10 11:20:42;;;;;;;30.33;12.02;;;;;;;3.98;41.80;96100.34;6216382;22;20012;-83
2024/01/10 11:25:38;;;;;;;31.27;11.65;;;;;;;3.13;42.28;96014.94;6147210;23;20029;-83
2024/01/10 11:28:04;;;;;;;28.67;11.32;;;;;;;3.45;41.92;96048.09;6158808;23;20096;-84
2024/01/10 11:31:00;;;;;;;33.13;11.30;;;;;;;4.62;42.48;96298.00;6147586;23;20047;-85